KNUCKPSP

Guest
Details From KNUC - San Clemente Island Nalf
To KPSP - Palm Springs Intl
Flight Number -
Tags generated
Created
Modified
Stats Distance 115 nm / 213 km
Max Altitude 4,300 ft / 1,311 m
Waypoints 3
Social Downloads 1
Likes 0
Share VATSIM

Download

Looking for another format? Having issues loading an existing format? Contact us
Advertisement - Login to hide

Notes

Basic altitude profile: - Ascent Rate: 2500ft/min - Ascent Speed: 250kts - Cruise Altitude: 12ft - Cruise Speed: 420kts - Descent Rate: 1500ft/min - Descent Speed: 250kts Options: - Use NATs: yes - Use PACOTS: yes - Use low airways: yes - Use high airways: yes

Route

KNUC HEMET KPSP

ID Type Via Altitude Latitude Longitude Leg Dist Tot Dist Heading (true) Name
O KNUC APT - 0 ft / 0 m 33.02274˚ -118.58849˚ - 0 nm - San Clemente Island Nalf
HEMET FIX - 4,300 ft / 1,311 m 33.69049˚ -116.87905˚ 94 nm 94 nm 64° / 65° -
O KPSP APT - 0 ft / 0 m 33.82968˚ -116.50622˚ 20 nm 115 nm 66° / 66° Palm Springs Intl

Altitude Profile

Advertisement - Login to hide

KNUC

Details ICAO KNUC
Name San Clemente Island Nalf
Region United States
Timezone America/Los_Angeles (UTC-7.0)
Stats Elevation 182 ft / 55 m (AMSL)
Location 33.022745° -118.588487°
Runways 1
Magnetic Variation 11.817° E

METAR

KNUC 201456Z VRB05KT 10SM OVC005 14/13 A2996 RMK AO2 SLP143 T01440133 53013

Decode

TAF

TAF KNUC 2015/2115 VRB06KT 9999 OVC004 QNH2988INS TEMPO 2018/2100 FEW004 FEW250 FM210000 30011KT 9999 SCT005 QNH2984INS TEMPO 2100/2103 BKN005 FM210300 VRB06KT 9999 BKN004 QNH2985INS T17/2022Z T14/2112Z FS30024

Decode

Departure Runways

ID Width Length Bearing (true) Bearing (mag) Surface Threshold Offset Overrun Length
05 200 ft / 61 m 9,290 ft / 2,832 m 67.19° 55.37° Concrete 0 ft / 0 m 0 ft / 0 m
23 200 ft / 61 m 9,290 ft / 2,832 m 247.20° 235.38° Concrete 0 ft / 0 m 0 ft / 0 m

KPSP

Details ICAO KPSP (PSP)
Name Palm Springs Intl
Region United States
Timezone America/Los_Angeles (UTC-7.0)
Stats Elevation 477 ft / 145 m (AMSL)
Location 33.829677° -116.506218°
Runways 2
Magnetic Variation 11.534° E

METAR

KPSP 201453Z 00000KT 10SM CLR 29/10 A2986 RMK AO2 SLP105 T02940100 53017 $

Decode

TAF

TAF KPSP 201120Z 2012/2112 VRB05KT P6SM SKC FM202000 11008KT P6SM SKC FM210200 33011KT P6SM SKC FM210700 32005KT P6SM SKC

Decode

Destination Runways

ID Width Length Bearing (true) Bearing (mag) Surface Threshold Offset Overrun Length
13L 75 ft / 23 m 4,958 ft / 1,511 m 143.52° 131.99° Asphalt 0 ft / 0 m 151 ft / 46 m
13R 151 ft / 46 m 10,012 ft / 3,052 m 143.52° 131.99° Asphalt 2,999 ft / 914 m 200 ft / 61 m
31L 151 ft / 46 m 10,012 ft / 3,052 m 323.53° 312.00° Asphalt 1,499 ft / 457 m 200 ft / 61 m
31R 75 ft / 23 m 4,958 ft / 1,511 m 323.53° 312.00° Asphalt 0 ft / 0 m 151 ft / 46 m

Popular Alternatives